Time;durP1;ratioP1;P1;durP2;ratioP2;P2;SDS_P1;SDS_P2;PMS_P1;PMS_P2;Temp;Humidity;BMP_temperature;BMP_pressure;BME280_temperature;BME280_humidity;BME280_pressure;Samples;Min_cycle;Max_cycle;Signal;HPM_P1;HPM_P2
2021/12/15 00:01:19;;;;;;;15.60;12.52;;;9.50;79.20;;;;;;5014272;28;20167;-64
2021/12/15 00:03:45;;;;;;;15.75;11.98;;;9.50;79.10;;;;;;5031548;28;20105;-63
2021/12/15 00:06:16;;;;;;;17.08;13.82;;;9.50;78.80;;;;;;5030694;28;20048;-56
2021/12/15 00:08:44;;;;;;;16.98;13.45;;;9.50;78.90;;;;;;5031710;28;20032;-60
2021/12/15 00:11:11;;;;;;;23.27;16.58;;;9.50;79.20;;;;;;5031045;28;20057;-62
2021/12/15 00:13:41;;;;;;;21.85;16.95;;;9.40;79.90;;;;;;5013567;28;20072;-63
2021/12/15 00:16:09;;;;;;;22.08;17.52;;;9.40;80.60;;;;;;5013186;28;20206;-62
2021/12/15 00:18:36;;;;;;;24.83;19.42;;;9.30;82.20;;;;;;5014293;28;20036;-63
2021/12/15 00:21:04;;;;;;;28.02;20.10;;;9.10;82.50;;;;;;5031391;28;20366;-62
2021/12/15 00:23:30;;;;;;;26.58;20.27;;;9.10;83.30;;;;;;5031551;28;20100;-65
2021/12/15 00:25:56;;;;;;;26.98;20.63;;;9.00;83.80;;;;;;5012981;28;20037;-65
2021/12/15 00:28:22;;;;;;;30.52;21.63;;;9.00;84.20;;;;;;5031660;28;20026;-63
2021/12/15 00:30:49;;;;;;;27.73;20.85;;;9.00;84.40;;;;;;5032001;28;20049;-66
2021/12/15 00:33:15;;;;;;;28.92;21.50;;;9.00;84.60;;;;;;5032107;28;20036;-64
2021/12/15 00:35:41;;;;;;;26.60;20.77;;;9.10;84.40;;;;;;4998065;28;20025;-65
2021/12/15 00:38:07;;;;;;;24.42;18.38;;;9.20;84.00;;;;;;5013968;28;20044;-62
2021/12/15 00:40:33;;;;;;;22.45;17.35;;;9.20;83.90;;;;;;5031852;28;20029;-68
2021/12/15 00:42:59;;;;;;;24.83;19.75;;;9.20;83.50;;;;;;5014041;28;20032;-66
2021/12/15 00:45:26;;;;;;;27.33;19.25;;;9.10;83.80;;;;;;5031873;28;20408;-65
2021/12/15 00:47:53;;;;;;;22.83;17.65;;;9.10;84.10;;;;;;5031540;28;20473;-65
2021/12/15 00:50:22;;;;;;;21.98;16.92;;;9.00;84.10;;;;;;5014479;28;20034;-65
2021/12/15 00:52:48;;;;;;;22.30;17.83;;;8.90;84.30;;;;;;5031829;28;20029;-64
2021/12/15 00:55:19;;;;;;;20.35;17.27;;;8.90;84.40;;;;;;5031892;28;20048;-65
2021/12/15 00:57:45;;;;;;;23.70;17.45;;;8.90;84.60;;;;;;5031597;28;20042;-67
2021/12/15 01:00:18;;;;;;;25.20;19.00;;;8.90;84.40;;;;;;5031339;28;20044;-63
2021/12/15 01:02:43;;;;;;;26.77;20.45;;;8.90;84.60;;;;;;5018127;28;20377;-64
2021/12/15 01:05:12;;;;;;;26.42;19.45;;;9.00;84.50;;;;;;5035443;28;20034;-65
2021/12/15 01:07:38;;;;;;;27.88;20.15;;;9.10;84.60;;;;;;5035784;28;20025;-61
2021/12/15 01:10:06;;;;;;;21.92;17.58;;;9.10;84.00;;;;;;5035187;28;20033;-64
2021/12/15 01:21:21;;;;;;;19.08;15.85;;;9.30;82.40;;;;;;5012311;28;20041;-64
2021/12/15 01:23:47;;;;;;;18.60;15.32;;;9.20;82.40;;;;;;5017812;28;20044;-62
2021/12/15 01:26:16;;;;;;;17.42;15.18;;;9.10;82.70;;;;;;5034956;28;20025;-63
2021/12/15 01:28:42;;;;;;;17.40;14.10;;;9.10;82.80;;;;;;5035473;28;20030;-64
2021/12/15 01:31:10;;;;;;;19.42;14.73;;;9.10;82.60;;;;;;5034951;28;20029;-66
2021/12/15 01:33:36;;;;;;;18.08;15.13;;;9.10;82.50;;;;;;5035386;28;20041;-63
2021/12/15 01:36:04;;;;;;;15.85;13.43;;;9.10;82.30;;;;;;5017095;28;20168;-62
2021/12/15 01:38:33;;;;;;;17.55;14.20;;;9.10;81.70;;;;;;5001388;28;20053;-64
2021/12/15 01:41:00;;;;;;;15.95;13.35;;;9.20;81.40;;;;;;5034636;28;20028;-66
2021/12/15 01:49:19;;;;;;;17.60;14.80;;;9.20;80.90;;;;;;5034719;28;20091;-68
2021/12/15 01:51:45;;;;;;;18.15;15.10;;;9.20;80.60;;;;;;5035501;28;20087;-65
2021/12/15 01:54:13;;;;;;;17.80;14.93;;;9.10;80.10;;;;;;5034340;28;20386;-62
2021/12/15 01:56:39;;;;;;;17.50;14.63;;;9.10;80.20;;;;;;5034476;28;20025;-62
2021/12/15 01:59:05;;;;;;;16.83;14.60;;;9.00;80.20;;;;;;5034126;28;20488;-64
2021/12/15 02:01:31;;;;;;;17.15;14.52;;;9.00;80.00;;;;;;5034726;28;20025;-65
2021/12/15 02:03:57;;;;;;;18.25;15.48;;;9.00;80.10;;;;;;5034361;28;20453;-66
2021/12/15 02:06:23;;;;;;;19.77;15.52;;;9.00;80.20;;;;;;5016801;28;20038;-68
2021/12/15 02:08:50;;;;;;;17.83;15.32;;;8.90;80.00;;;;;;5034382;28;20092;-64
2021/12/15 02:11:16;;;;;;;20.35;15.25;;;8.90;80.00;;;;;;5000916;28;20057;-62
2021/12/15 02:13:42;;;;;;;17.90;15.07;;;8.90;80.10;;;;;;5033966;28;20107;-64
2021/12/15 02:16:08;;;;;;;19.15;15.60;;;8.90;79.90;;;;;;5033648;28;20362;-63
2021/12/15 02:18:41;;;;;;;18.75;15.93;;;8.90;79.90;;;;;;5034013;28;20367;-65
2021/12/15 02:21:14;;;;;;;19.23;16.67;;;8.90;79.70;;;;;;5034060;28;20045;-62
2021/12/15 02:23:46;;;;;;;17.27;15.02;;;8.90;79.80;;;;;;5034392;28;20107;-64
2021/12/15 02:26:17;;;;;;;19.58;16.02;;;9.00;79.70;;;;;;5016123;28;20083;-66
2021/12/15 02:28:47;;;;;;;19.13;15.38;;;9.00;79.70;;;;;;5016620;28;20025;-63
2021/12/15 02:39:14;;;;;;;19.85;14.38;;;9.00;79.30;;;;;;5033764;28;20028;-63
2021/12/15 02:41:41;;;;;;;17.42;15.48;;;9.00;78.90;;;;;;5016736;28;20031;-60
2021/12/15 02:44:11;;;;;;;17.15;14.15;;;9.00;79.00;;;;;;5033242;28;20025;-63
2021/12/15 02:46:38;;;;;;;16.27;13.88;;;9.00;79.00;;;;;;5034060;28;20021;-64
2021/12/15 02:49:08;;;;;;;15.70;14.02;;;9.00;79.00;;;;;;5033494;28;20104;-63
2021/12/15 02:51:36;;;;;;;16.38;13.82;;;9.00;79.30;;;;;;5016181;28;20026;-61
2021/12/15 02:54:04;;;;;;;15.45;13.30;;;9.00;78.50;;;;;;5033436;28;20029;-60
2021/12/15 02:56:30;;;;;;;16.50;14.48;;;8.90;78.50;;;;;;5016248;28;20032;-63
2021/12/15 02:59:03;;;;;;;17.13;13.00;;;8.90;78.60;;;;;;5033405;28;20037;-60
2021/12/15 03:01:42;;;;;;;14.38;12.88;;;9.00;78.70;;;;;;5033723;28;20017;-61
2021/12/15 03:06:45;;;;;;;15.30;12.98;;;9.00;78.40;;;;;;5033910;28;20040;-62
2021/12/15 03:17:23;;;;;;;13.40;12.00;;;9.00;78.40;;;;;;5033437;28;20031;-65
2021/12/15 03:19:51;;;;;;;13.68;12.10;;;9.00;78.40;;;;;;5033629;28;20029;-58
2021/12/15 03:22:17;;;;;;;13.20;11.80;;;8.90;78.20;;;;;;5015316;28;20472;-61
2021/12/15 03:24:43;;;;;;;13.30;11.68;;;8.90;78.80;;;;;;5033309;28;20022;-62
2021/12/15 03:27:16;;;;;;;14.77;12.68;;;8.90;78.30;;;;;;5032909;28;20018;-59
2021/12/15 03:35:22;;;;;;;14.40;11.07;;;8.90;78.10;;;;;;5033102;28;20144;-61
2021/12/15 03:37:55;;;;;;;13.65;11.20;;;8.90;78.30;;;;;;5033685;28;20021;-62
2021/12/15 03:40:36;;;;;;;14.27;11.13;;;8.90;78.20;;;;;;5033338;28;20021;-63
2021/12/15 03:43:07;;;;;;;13.35;11.18;;;8.90;77.90;;;;;;5032910;28;20053;-62
2021/12/15 03:45:38;;;;;;;14.90;12.50;;;8.90;78.00;;;;;;5015779;28;20032;-62
2021/12/15 03:48:09;;;;;;;12.70;11.40;;;9.00;78.10;;;;;;5032891;28;20022;-65
2021/12/15 03:50:37;;;;;;;12.13;10.00;;;9.00;78.00;;;;;;5033380;28;20032;-61
2021/12/15 03:53:04;;;;;;;12.32;10.10;;;9.00;77.90;;;;;;5015051;28;20064;-61
2021/12/15 03:55:34;;;;;;;12.88;10.35;;;8.90;78.00;;;;;;5033547;28;20020;-62
2021/12/15 03:58:01;;;;;;;11.65;9.18;;;8.90;78.10;;;;;;5014791;28;20021;-61
2021/12/15 04:00:29;;;;;;;10.93;9.00;;;8.80;77.90;;;;;;5015385;28;20112;-63
2021/12/15 04:02:54;;;;;;;12.38;9.13;;;8.80;78.20;;;;;;5014683;28;20025;-61
2021/12/15 04:05:21;;;;;;;11.50;9.20;;;8.80;78.30;;;;;;5032518;28;20037;-62
2021/12/15 04:07:48;;;;;;;9.05;8.00;;;8.80;78.30;;;;;;5032966;28;20021;-62
2021/12/15 04:10:18;;;;;;;9.68;8.68;;;8.80;78.30;;;;;;5014652;28;20125;-58
2021/12/15 04:12:44;;;;;;;10.40;8.38;;;8.80;78.30;;;;;;5032407;28;20014;-62
2021/12/15 04:18:06;;;;;;;10.38;8.05;;;8.80;78.40;;;;;;5019138;28;20037;-64
2021/12/15 04:20:34;;;;;;;9.82;7.85;;;8.90;78.20;;;;;;5015002;28;20469;-61
2021/12/15 04:23:01;;;;;;;9.63;7.93;;;8.90;77.80;;;;;;5032137;28;20485;-63
2021/12/15 04:25:32;;;;;;;9.50;7.70;;;9.00;77.70;;;;;;5032762;28;20076;-66
2021/12/15 04:28:23;;;;;;;9.18;7.78;;;9.00;77.70;;;;;;5015217;28;20025;-66
2021/12/15 04:30:52;;;;;;;8.93;8.02;;;8.90;77.60;;;;;;5032929;28;20079;-62
2021/12/15 04:33:27;;;;;;;9.32;8.40;;;9.00;77.80;;;;;;5014572;28;20457;-62
2021/12/15 04:35:55;;;;;;;10.45;8.38;;;9.00;77.60;;;;;;5032188;28;20032;-63
2021/12/15 04:38:24;;;;;;;9.48;8.27;;;9.00;77.50;;;;;;5032065;28;20053;-65
2021/12/15 04:40:51;;;;;;;9.65;8.65;;;9.10;77.50;;;;;;5015373;28;20442;-63
2021/12/15 04:43:18;;;;;;;9.43;8.43;;;9.10;77.80;;;;;;5032242;28;20507;-64
2021/12/15 04:45:44;;;;;;;10.35;8.82;;;9.10;77.10;;;;;;5032225;28;20121;-63
2021/12/15 04:48:10;;;;;;;9.98;8.90;;;9.10;77.10;;;;;;5032054;28;20021;-62
2021/12/15 04:50:37;;;;;;;9.35;8.35;;;9.20;77.10;;;;;;5032388;28;20056;-64
2021/12/15 04:53:05;;;;;;;9.40;8.35;;;9.30;76.70;;;;;;5014266;28;20103;-63
2021/12/15 04:55:33;;;;;;;10.52;9.00;;;9.20;76.20;;;;;;5032332;28;20036;-62
2021/12/15 04:58:01;;;;;;;10.07;9.07;;;9.20;76.10;;;;;;5014752;28;20397;-66
2021/12/15 05:00:30;;;;;;;10.60;9.43;;;9.20;76.10;;;;;;5032070;28;20450;-65
2021/12/15 05:02:57;;;;;;;9.35;8.35;;;9.20;76.20;;;;;;5032744;28;20032;-61
2021/12/15 05:05:25;;;;;;;11.40;9.30;;;9.20;75.70;;;;;;5031913;28;20048;-64
2021/12/15 05:07:52;;;;;;;10.25;8.65;;;9.20;75.70;;;;;;5032005;28;20013;-58
2021/12/15 05:10:19;;;;;;;10.75;8.57;;;9.20;75.50;;;;;;5031772;28;20172;-63
2021/12/15 05:12:45;;;;;;;10.20;8.43;;;9.20;75.70;;;;;;5031776;28;20053;-61
2021/12/15 05:15:12;;;;;;;13.35;9.25;;;9.10;75.90;;;;;;5031780;28;20401;-61
2021/12/15 05:17:38;;;;;;;10.68;8.85;;;9.10;76.00;;;;;;5032452;28;20029;-62
2021/12/15 05:20:08;;;;;;;10.45;8.50;;;9.00;76.10;;;;;;5013827;28;20032;-64
2021/12/15 05:22:34;;;;;;;10.88;8.25;;;9.00;76.20;;;;;;5014415;28;20021;-65
2021/12/15 05:25:00;;;;;;;9.82;8.50;;;9.00;76.40;;;;;;5031743;28;20425;-61
2021/12/15 05:27:26;;;;;;;9.77;8.10;;;9.00;76.40;;;;;;5031354;28;20029;-61
2021/12/15 05:29:52;;;;;;;9.15;8.25;;;9.00;76.20;;;;;;5031859;28;20028;-64
2021/12/15 05:32:21;;;;;;;11.48;8.60;;;9.00;76.20;;;;;;5031510;28;20021;-62
2021/12/15 05:34:49;;;;;;;10.32;8.60;;;9.00;76.20;;;;;;5032094;28;20022;-63
2021/12/15 05:37:17;;;;;;;11.27;9.02;;;9.10;76.10;;;;;;5013737;28;20048;-62
2021/12/15 05:39:43;;;;;;;9.48;8.50;;;9.10;75.90;;;;;;5032004;28;20018;-64
2021/12/15 05:42:09;;;;;;;10.80;9.30;;;9.10;76.20;;;;;;5031411;28;20067;-67
2021/12/15 05:44:35;;;;;;;9.90;8.40;;;9.20;76.00;;;;;;5014134;28;20029;-63
2021/12/15 05:47:03;;;;;;;9.85;8.85;;;9.20;75.50;;;;;;5014295;28;20032;-69
2021/12/15 05:49:30;;;;;;;9.95;8.85;;;9.20;75.40;;;;;;5034862;28;20017;-64
2021/12/15 05:51:56;;;;;;;11.02;9.38;;;9.20;75.30;;;;;;5035279;28;20029;-64
2021/12/15 05:54:22;;;;;;;11.43;9.05;;;9.20;75.30;;;;;;5034651;28;20025;-63
2021/12/15 05:56:48;;;;;;;11.48;9.60;;;9.20;75.00;;;;;;5035200;28;20022;-61
2021/12/15 05:59:15;;;;;;;11.63;10.05;;;9.20;74.90;;;;;;5017144;28;20045;-62
2021/12/15 06:01:40;;;;;;;12.45;9.98;;;9.30;74.80;;;;;;5035373;28;20152;-60
2021/12/15 06:04:07;;;;;;;16.27;10.30;;;9.20;74.60;;;;;;5017360;28;20065;-70
2021/12/15 06:06:34;;;;;;;12.55;10.43;;;9.20;74.80;;;;;;5016912;28;20048;-63
2021/12/15 06:09:02;;;;;;;11.52;9.93;;;9.20;74.60;;;;;;5017237;28;20021;-61
2021/12/15 06:11:28;;;;;;;11.40;9.73;;;9.30;74.40;;;;;;5034524;28;20049;-64
2021/12/15 06:13:54;;;;;;;14.75;10.95;;;9.20;74.60;;;;;;5013486;28;20092;-63
2021/12/15 06:16:22;;;;;;;13.18;11.20;;;9.20;74.40;;;;;;5014978;28;20054;-62
2021/12/15 06:18:49;;;;;;;17.65;10.68;;;9.30;74.50;;;;;;5014975;28;20074;-64
2021/12/15 06:21:16;;;;;;;12.45;10.45;;;9.30;74.60;;;;;;5013164;28;20060;-65
2021/12/15 06:23:43;;;;;;;11.40;10.13;;;9.30;74.60;;;;;;5013619;28;20029;-61
2021/12/15 06:26:09;;;;;;;12.77;10.60;;;9.40;74.50;;;;;;5012931;28;20030;-66
2021/12/15 06:28:36;;;;;;;12.30;10.73;;;9.40;74.10;;;;;;5013901;28;20029;-64
2021/12/15 06:31:06;;;;;;;13.38;10.95;;;9.40;73.80;;;;;;5014925;28;20025;-62
2021/12/15 06:33:33;;;;;;;13.35;10.60;;;9.40;74.10;;;;;;5013163;28;20053;-64
2021/12/15 06:36:01;;;;;;;12.48;10.52;;;9.40;74.00;;;;;;5014876;28;20097;-63
2021/12/15 06:38:37;;;;;;;14.60;11.05;;;9.40;73.80;;;;;;5014509;28;20157;-62
2021/12/15 06:41:06;;;;;;;14.32;10.85;;;9.50;73.80;;;;;;5014864;28;20029;-58
2021/12/15 06:43:32;;;;;;;14.05;12.18;;;9.50;73.70;;;;;;5013919;28;20022;-60
2021/12/15 06:59:31;;;;;;;15.38;12.10;;;9.50;73.50;;;;;;5013483;28;20248;-62
2021/12/15 07:01:58;;;;;;;22.00;12.65;;;9.60;73.30;;;;;;5013072;28;20026;-63
2021/12/15 07:04:24;;;;;;;15.75;12.48;;;9.60;73.20;;;;;;5013715;28;20101;-62
2021/12/15 07:06:51;;;;;;;15.48;12.18;;;9.60;73.20;;;;;;5014460;28;20022;-66
2021/12/15 07:09:18;;;;;;;14.13;11.55;;;9.60;73.20;;;;;;5013229;28;20026;-65
2021/12/15 07:11:44;;;;;;;17.77;12.02;;;9.50;72.90;;;;;;5014603;28;20022;-64
2021/12/15 07:14:11;;;;;;;14.57;11.85;;;9.50;72.90;;;;;;5028142;28;20052;-62
2021/12/15 07:16:41;;;;;;;17.73;13.02;;;9.50;73.10;;;;;;5033561;28;20061;-67
2021/12/15 07:19:16;;;;;;;17.67;13.23;;;9.50;73.20;;;;;;5033849;28;20028;-62
2021/12/15 07:21:51;;;;;;;14.45;12.15;;;9.50;73.00;;;;;;5016095;28;20017;-61
2021/12/15 07:24:18;;;;;;;17.13;12.85;;;9.60;72.60;;;;;;5032669;28;20028;-63
2021/12/15 07:26:44;;;;;;;15.20;12.60;;;9.60;72.60;;;;;;5015559;28;20474;-65
2021/12/15 07:29:09;;;;;;;17.88;12.93;;;9.60;72.80;;;;;;5033465;28;20022;-63
2021/12/15 07:31:36;;;;;;;17.73;13.40;;;9.70;72.60;;;;;;5015074;28;20053;-57
2021/12/15 07:34:02;;;;;;;18.75;12.95;;;9.70;72.50;;;;;;5032127;28;20033;-59
2021/12/15 07:36:28;;;;;;;18.77;13.77;;;9.70;72.20;;;;;;5014532;28;20037;-62
2021/12/15 07:38:56;;;;;;;17.20;12.68;;;9.70;72.10;;;;;;5032888;28;20493;-62
2021/12/15 07:41:35;;;;;;;18.83;13.07;;;9.70;72.30;;;;;;5014605;28;20029;-62
2021/12/15 07:44:02;;;;;;;15.35;12.00;;;9.70;72.20;;;;;;5015139;28;20131;-62
2021/12/15 07:46:29;;;;;;;18.25;11.60;;;9.70;72.50;;;;;;5032563;28;20033;-62
2021/12/15 07:48:55;;;;;;;15.20;11.70;;;9.70;72.60;;;;;;5032880;28;20057;-64
2021/12/15 07:51:21;;;;;;;19.75;12.00;;;9.80;72.30;;;;;;5014501;28;20029;-66
2021/12/15 07:53:47;;;;;;;16.02;11.32;;;9.80;72.30;;;;;;5015401;28;20337;-67
2021/12/15 07:56:14;;;;;;;22.13;14.52;;;9.70;72.00;;;;;;5032475;28;20018;-62
2021/12/15 07:58:40;;;;;;;13.95;10.52;;;9.80;72.00;;;;;;5014829;28;20394;-62
2021/12/15 08:01:06;;;;;;;14.35;11.35;;;9.80;71.90;;;;;;5032984;28;20030;-63
2021/12/15 08:03:35;;;;;;;13.55;10.80;;;9.80;72.20;;;;;;5032105;28;20075;-69
2021/12/15 08:06:01;;;;;;;13.18;10.30;;;9.90;72.10;;;;;;5032556;28;20455;-63
2021/12/15 08:08:27;;;;;;;12.85;10.18;;;10.00;71.90;;;;;;5032049;28;20485;-64
2021/12/15 08:10:56;;;;;;;17.27;10.73;;;10.00;71.60;;;;;;5031641;28;20032;-63
2021/12/15 08:13:27;;;;;;;13.07;10.73;;;10.00;71.50;;;;;;5032072;28;20474;-61
2021/12/15 08:15:53;;;;;;;18.15;11.52;;;10.10;71.50;;;;;;5032741;28;20033;-66
2021/12/15 08:18:19;;;;;;;16.45;11.77;;;10.10;70.90;;;;;;5014207;28;20025;-64
2021/12/15 08:20:46;;;;;;;18.38;10.98;;;10.10;70.80;;;;;;5014555;28;20120;-71
2021/12/15 08:23:12;;;;;;;13.95;11.13;;;10.10;70.70;;;;;;5014892;28;20037;-66
2021/12/15 08:25:39;;;;;;;16.42;11.85;;;10.10;70.90;;;;;;5014384;28;20246;-64
2021/12/15 08:28:07;;;;;;;16.50;12.45;;;10.10;70.70;;;;;;5014799;28;20033;-69
2021/12/15 08:30:33;;;;;;;19.52;14.70;;;10.10;70.70;;;;;;5032047;28;20022;-66
2021/12/15 08:33:03;;;;;;;19.65;14.63;;;10.10;71.00;;;;;;5032304;28;20029;-69
2021/12/15 08:35:35;;;;;;;17.98;12.80;;;10.10;71.00;;;;;;5031719;28;20042;-69
2021/12/15 08:38:02;;;;;;;16.00;11.75;;;10.20;71.10;;;;;;5032071;28;20071;-65
2021/12/15 08:40:28;;;;;;;15.60;11.40;;;10.30;71.10;;;;;;5031520;28;20109;-70
2021/12/15 08:42:55;;;;;;;19.70;12.05;;;10.30;70.70;;;;;;5014181;28;20446;-66
2021/12/15 08:45:21;;;;;;;14.32;11.48;;;10.40;70.60;;;;;;5013830;28;20034;-70
2021/12/15 08:47:47;;;;;;;21.35;13.05;;;10.50;70.60;;;;;;5014421;28;20116;-70
2021/12/15 08:50:17;;;;;;;13.57;11.32;;;10.60;70.30;;;;;;5014227;28;20120;-64
2021/12/15 08:52:43;;;;;;;16.35;11.98;;;10.60;69.90;;;;;;5013762;28;20022;-65
2021/12/15 08:55:10;;;;;;;15.35;12.60;;;10.70;69.90;;;;;;5031458;28;20465;-66
2021/12/15 08:57:37;;;;;;;16.77;12.55;;;10.70;69.40;;;;;;5031097;28;20030;-64
2021/12/15 09:00:07;;;;;;;21.20;12.85;;;10.60;69.50;;;;;;5014010;28;20037;-64
2021/12/15 09:02:35;;;;;;;17.02;12.77;;;10.60;69.80;;;;;;5013868;28;20109;-61
2021/12/15 09:05:01;;;;;;;16.85;12.35;;;10.60;70.00;;;;;;5014247;28;20472;-61
2021/12/15 09:07:27;;;;;;;17.92;12.88;;;10.60;69.70;;;;;;5030382;28;20061;-69
2021/12/15 09:09:52;;;;;;;16.75;12.90;;;10.70;69.80;;;;;;5032117;28;20494;-69
2021/12/15 09:12:19;;;;;;;15.23;12.60;;;10.80;69.40;;;;;;5013312;28;20029;-66
2021/12/15 09:14:45;;;;;;;15.88;12.18;;;10.80;69.30;;;;;;5031224;28;20056;-69
2021/12/15 09:17:12;;;;;;;18.67;14.02;;;10.80;69.40;;;;;;5031427;28;20065;-68
2021/12/15 09:19:38;;;;;;;20.20;13.63;;;10.90;69.20;;;;;;5030996;28;20025;-68
2021/12/15 09:22:05;;;;;;;16.73;11.60;;;10.90;69.20;;;;;;5014535;28;20032;-68
2021/12/15 09:24:31;;;;;;;15.55;12.75;;;10.80;69.00;;;;;;5016784;28;20025;-70
2021/12/15 09:26:57;;;;;;;16.83;11.55;;;10.80;69.50;;;;;;5034360;28;20036;-65
2021/12/15 09:29:23;;;;;;;17.95;13.02;;;10.80;69.70;;;;;;5015892;28;20112;-66
2021/12/15 09:31:50;;;;;;;16.25;12.40;;;10.80;69.70;;;;;;5035517;28;20093;-63
2021/12/15 09:34:18;;;;;;;22.20;13.07;;;10.70;70.50;;;;;;5017874;28;20097;-69
2021/12/15 09:36:52;;;;;;;16.85;12.90;;;10.80;70.10;;;;;;5017893;28;20026;-65
2021/12/15 09:39:20;;;;;;;19.13;11.20;;;10.80;70.30;;;;;;5035379;28;20109;-67
2021/12/15 09:41:46;;;;;;;14.80;11.25;;;10.80;70.30;;;;;;5017213;28;20026;-64
2021/12/15 09:44:16;;;;;;;14.73;12.38;;;10.70;70.60;;;;;;5035341;28;20087;-63
2021/12/15 10:03:27;;;;;;;13.13;10.30;;;10.70;69.80;;;;;;5034492;28;20036;-66
2021/12/15 10:19:33;;;;;;;11.35;9.30;;;10.50;71.10;;;;;;5034542;28;20064;-69
2021/12/15 10:22:12;;;;;;;12.10;9.68;;;10.30;71.40;;;;;;5016818;28;20025;-63
2021/12/15 10:24:46;;;;;;;11.85;10.05;;;10.30;71.60;;;;;;5033954;28;20029;-67
2021/12/15 10:27:32;;;;;;;14.05;10.60;;;10.20;71.80;;;;;;5034692;28;20445;-73
2021/12/15 10:30:14;;;;;;;11.63;9.75;;;10.30;72.10;;;;;;5017005;28;20029;-75
2021/12/15 10:32:42;;;;;;;13.30;8.32;;;10.50;71.70;;;;;;5034051;28;20100;-70
2021/12/15 10:35:16;;;;;;;11.18;8.70;;;10.40;71.50;;;;;;5033979;28;20026;-68
2021/12/15 10:37:42;;;;;;;11.88;9.60;;;10.40;71.80;;;;;;5016394;28;20103;-67
2021/12/15 10:40:12;;;;;;;10.95;9.40;;;10.50;71.70;;;;;;5034283;28;20027;-70
2021/12/15 10:42:37;;;;;;;10.65;9.48;;;10.50;71.80;;;;;;4999824;28;20116;-70
2021/12/15 10:45:10;;;;;;;15.57;10.20;;;10.60;71.80;;;;;;5034203;28;20117;-68
2021/12/15 10:47:42;;;;;;;15.05;9.57;;;10.70;70.90;;;;;;4999798;28;20084;-66
2021/12/15 10:50:17;;;;;;;12.48;9.13;;;10.70;70.90;;;;;;5016112;28;20037;-67
2021/12/15 10:52:59;;;;;;;15.32;10.32;;;10.70;71.30;;;;;;5016124;28;20026;-70
2021/12/15 10:55:33;;;;;;;16.88;9.82;;;10.80;70.90;;;;;;5016224;28;20057;-66
2021/12/15 10:58:00;;;;;;;11.57;9.05;;;10.90;70.20;;;;;;5016244;28;20029;-68
2021/12/15 11:00:32;;;;;;;13.65;9.25;;;10.90;69.90;;;;;;5015991;28;20029;-67
2021/12/15 11:03:14;;;;;;;14.73;9.27;;;11.00;70.30;;;;;;5015209;28;20482;-66
2021/12/15 11:05:40;;;;;;;13.70;9.73;;;11.10;70.10;;;;;;5000143;28;20134;-75
2021/12/15 11:08:06;;;;;;;12.55;8.55;;;11.20;69.50;;;;;;5016099;28;20026;-67
2021/12/15 11:10:37;;;;;;;12.68;10.00;;;11.20;69.20;;;;;;5033199;28;20036;-69
2021/12/15 11:13:07;;;;;;;13.35;9.90;;;11.20;69.30;;;;;;5015072;28;20037;-69
2021/12/15 11:15:41;;;;;;;14.40;9.73;;;11.30;69.30;;;;;;5032946;28;20021;-69
2021/12/15 11:18:16;;;;;;;13.02;9.27;;;11.40;69.10;;;;;;5033358;28;20030;-67
2021/12/15 11:20:48;;;;;;;10.18;7.78;;;11.40;68.30;;;;;;5014855;28;20458;-69
2021/12/15 11:23:19;;;;;;;10.52;9.43;;;11.30;68.50;;;;;;5015420;28;20125;-68
2021/12/15 11:25:48;;;;;;;10.00;8.75;;;11.20;68.70;;;;;;5014798;28;20083;-69
2021/12/15 11:28:16;;;;;;;15.73;9.75;;;11.20;68.90;;;;;;5015153;28;20021;-71
2021/12/15 11:30:54;;;;;;;16.02;9.32;;;11.30;69.40;;;;;;5032516;28;20022;-71
2021/12/15 11:33:25;;;;;;;12.85;8.63;;;11.20;68.50;;;;;;5015463;28;20472;-70
2021/12/15 11:36:18;;;;;;;14.32;9.68;;;11.10;68.50;;;;;;5032498;28;20278;-71
2021/12/15 11:39:01;;;;;;;18.92;9.15;;;11.10;69.00;;;;;;5032109;28;20044;-66
2021/12/15 11:41:32;;;;;;;11.43;9.00;;;11.10;68.90;;;;;;5033141;28;20032;-68
2021/12/15 11:44:11;;;;;;;13.55;10.13;;;11.00;69.10;;;;;;5032860;28;20034;-67
2021/12/15 11:46:50;;;;;;;12.15;8.82;;;11.10;69.00;;;;;;5014822;28;20516;-73
2021/12/15 11:49:29;;;;;;;11.70;8.20;;;11.00;69.00;;;;;;5032661;28;20030;-69
2021/12/15 11:52:02;;;;;;;12.13;8.40;;;10.80;69.00;;;;;;5014688;28;20033;-65
2021/12/15 11:54:34;;;;;;;11.32;8.35;;;10.70;69.50;;;;;;5015121;28;20036;-71
2021/12/15 11:57:03;;;;;;;13.35;8.57;;;10.80;69.80;;;;;;5033180;28;20025;-67
2021/12/15 11:59:33;;;;;;;12.05;8.10;;;10.80;69.40;;;;;;5032339;28;20048;-67
2021/12/15 12:02:19;;;;;;;15.30;8.32;;;10.80;69.30;;;;;;5031261;28;20025;-70
2021/12/15 12:05:00;;;;;;;10.70;8.98;;;10.90;69.30;;;;;;5012829;28;20033;-69
2021/12/15 12:07:29;;;;;;;12.02;9.52;;;10.90;69.00;;;;;;5032334;28;20486;-67
2021/12/15 12:10:10;;;;;;;19.00;13.38;;;11.10;68.90;;;;;;5031169;28;20028;-71
2021/12/15 12:12:41;;;;;;;12.57;8.75;;;11.00;68.30;;;;;;5013490;28;20033;-66
2021/12/15 12:15:13;;;;;;;11.43;8.27;;;10.90;68.50;;;;;;5009739;28;20183;-67
2021/12/15 12:17:45;;;;;;;11.63;9.03;;;10.80;68.90;;;;;;5009875;28;20049;-66
2021/12/15 12:20:14;;;;;;;16.42;9.25;;;10.90;68.90;;;;;;5010474;28;20036;-72
2021/12/15 12:22:43;;;;;;;11.68;7.85;;;10.90;68.70;;;;;;5009453;28;20034;-69
2021/12/15 12:25:21;;;;;;;13.40;9.05;;;10.80;68.80;;;;;;5011469;28;20034;-70
2021/12/15 12:27:48;;;;;;;9.95;7.90;;;10.80;69.10;;;;;;5010297;28;20034;-66
2021/12/15 12:30:19;;;;;;;11.48;8.15;;;10.70;69.40;;;;;;5011791;28;20117;-71
2021/12/15 12:32:45;;;;;;;13.82;8.60;;;10.70;69.40;;;;;;5011041;28;20096;-64
2021/12/15 12:35:12;;;;;;;11.02;8.05;;;10.80;69.20;;;;;;5010310;28;20034;-68
2021/12/15 12:37:38;;;;;;;12.85;8.18;;;10.80;69.30;;;;;;5011396;28;20022;-65
2021/12/15 12:40:34;;;;;;;9.95;8.38;;;10.80;69.10;;;;;;5010447;28;20246;-65
2021/12/15 12:43:15;;;;;;;12.32;8.57;;;10.80;68.90;;;;;;5009577;28;20030;-66
2021/12/15 12:45:42;;;;;;;12.73;8.57;;;10.80;69.00;;;;;;5007225;28;20125;-66
2021/12/15 12:59:40;;;;;;;11.38;7.72;;;10.60;69.70;;;;;;5015387;28;20033;-66
2021/12/15 13:02:36;;;;;;;13.13;9.52;;;10.70;69.70;;;;;;5015504;28;20203;-65
2021/12/15 13:05:04;;;;;;;11.27;8.57;;;10.70;69.80;;;;;;5013550;28;20115;-64
2021/12/15 13:07:52;;;;;;;12.10;8.73;;;10.60;69.80;;;;;;5015075;28;20037;-69
2021/12/15 13:10:20;;;;;;;11.80;7.82;;;10.70;69.30;;;;;;5013532;28;20183;-68
2021/12/15 13:12:47;;;;;;;9.88;7.68;;;10.70;69.20;;;;;;5014592;28;20033;-66
2021/12/15 13:15:22;;;;;;;11.57;7.32;;;10.80;69.30;;;;;;5014038;28;20409;-70
2021/12/15 13:18:11;;;;;;;16.75;8.40;;;10.80;68.90;;;;;;5014574;28;20156;-69
2021/12/15 13:20:37;;;;;;;10.55;7.82;;;10.90;68.70;;;;;;5014093;28;20131;-67
2021/12/15 13:23:30;;;;;;;11.15;8.43;;;11.00;68.70;;;;;;5014205;28;20326;-67
2021/12/15 13:28:48;;;;;;;10.15;8.02;;;11.00;68.20;;;;;;5013904;28;20049;-70
2021/12/15 13:31:22;;;;;;;13.60;9.13;;;10.90;68.80;;;;;;5013653;28;20022;-65
2021/12/15 13:33:58;;;;;;;12.38;8.15;;;11.00;68.40;;;;;;5013360;28;20034;-70
2021/12/15 13:36:30;;;;;;;11.63;9.13;;;11.00;68.50;;;;;;5013818;28;20025;-69
2021/12/15 13:39:07;;;;;;;11.55;8.07;;;11.00;68.10;;;;;;5011414;28;20201;-68
2021/12/15 13:42:00;;;;;;;12.02;7.90;;;11.00;67.90;;;;;;5012128;28;20026;-69
2021/12/15 13:44:57;;;;;;;9.77;8.30;;;11.00;67.90;;;;;;5014626;28;20208;-69
2021/12/15 13:47:26;;;;;;;11.30;8.50;;;10.90;67.80;;;;;;5012137;28;20034;-68
2021/12/15 13:50:00;;;;;;;23.83;13.77;;;10.90;68.20;;;;;;5014368;28;20046;-66
2021/12/15 13:52:31;;;;;;;11.18;8.82;;;10.90;68.40;;;;;;5013926;28;20042;-67
2021/12/15 13:55:24;;;;;;;13.68;9.93;;;10.90;68.20;;;;;;5012819;28;20038;-65
2021/12/15 13:57:53;;;;;;;11.95;8.93;;;10.90;68.50;;;;;;5013813;28;20112;-67
2021/12/15 14:00:37;;;;;;;16.38;8.90;;;10.90;68.10;;;;;;5012525;28;20127;-65
2021/12/15 14:03:03;;;;;;;12.57;8.85;;;10.80;68.20;;;;;;5012967;28;20072;-64
2021/12/15 14:05:31;;;;;;;15.60;9.60;;;10.80;68.30;;;;;;5013848;28;20143;-70
2021/12/15 14:08:20;;;;;;;15.23;9.00;;;10.80;68.30;;;;;;5011410;28;20116;-70
2021/12/15 14:10:50;;;;;;;13.32;9.43;;;10.80;68.30;;;;;;5012604;28;20022;-66
2021/12/15 14:13:16;;;;;;;16.15;9.45;;;10.70;68.10;;;;;;5016778;28;20077;-67
2021/12/15 14:15:46;;;;;;;13.13;9.00;;;10.80;68.20;;;;;;5015277;28;20033;-67
2021/12/15 14:18:28;;;;;;;15.40;9.35;;;10.80;67.90;;;;;;5033600;28;20452;-73
2021/12/15 14:21:02;;;;;;;11.15;8.75;;;10.80;67.70;;;;;;5014995;28;20025;-68
2021/12/15 14:23:54;;;;;;;12.98;8.38;;;10.70;67.80;;;;;;5015614;28;20422;-68
2021/12/15 14:26:30;;;;;;;15.00;9.02;;;10.70;68.00;;;;;;5029389;28;20048;-68
2021/12/15 14:29:02;;;;;;;12.40;8.90;;;10.60;68.20;;;;;;5015250;28;20041;-68
2021/12/15 14:31:33;;;;;;;13.88;9.85;;;10.60;68.30;;;;;;5034213;28;20022;-68